Time;durP1;ratioP1;P1;durP2;ratioP2;P2;SDS_P1;SDS_P2;PMS_P1;PMS_P2;Temp;Humidity;BMP_temperature;BMP_pressure;BME280_temperature;BME280_humidity;BME280_pressure;Samples;Min_cycle;Max_cycle;Signal;HPM_P1;HPM_P2
2022/03/15 00:01:21;;;;;;;15.83;8.65;;;;;;;;;;1784596;80;21044;-68
2022/03/15 00:03:48;;;;;;;16.62;8.95;;;;;;;;;;1784403;80;21056;-68
2022/03/15 00:06:15;;;;;;;17.73;9.28;;;;;;;;;;1784277;80;21012;-68
2022/03/15 00:08:42;;;;;;;14.45;8.35;;;;;;;;;;1784570;80;21001;-68
2022/03/15 00:11:09;;;;;;;17.57;9.28;;;;;;;;;;1784342;80;21075;-68
2022/03/15 00:13:37;;;;;;;18.75;9.58;;;;;;;;;;1784434;80;21532;-68
2022/03/15 00:16:04;;;;;;;18.40;8.63;;;;;;;;;;1784552;80;21005;-68
2022/03/15 00:18:32;;;;;;;15.20;7.72;;;;;;;;;;1784453;80;21504;-68
2022/03/15 00:21:04;;;;;;;18.52;8.68;;;;;;;;;;1784285;80;21551;-69
2022/03/15 00:23:31;;;;;;;21.30;9.65;;;;;;;;;;1784596;80;20966;-68
2022/03/15 00:26:00;;;;;;;15.13;7.83;;;;;;;;;;1784307;80;21016;-68
2022/03/15 00:28:26;;;;;;;11.38;6.97;;;;;;;;;;1784497;80;20976;-68
2022/03/15 00:30:53;;;;;;;17.37;8.85;;;;;;;;;;1784289;80;21087;-68
2022/03/15 00:33:20;;;;;;;16.65;8.05;;;;;;;;;;1784274;80;20982;-68
2022/03/15 00:35:51;;;;;;;13.65;8.40;;;;;;;;;;1784628;80;21044;-68
2022/03/15 00:38:14;;;;;;;15.90;8.85;;;;;;;;;;1783050;80;21033;-68
2022/03/15 00:40:41;;;;;;;17.85;8.53;;;;;;;;;;1784397;80;21056;-68
2022/03/15 00:43:07;;;;;;;14.65;9.05;;;;;;;;;;1784479;80;21017;-68
2022/03/15 00:45:34;;;;;;;15.03;8.75;;;;;;;;;;1784581;80;21024;-69
2022/03/15 00:48:01;;;;;;;18.67;10.30;;;;;;;;;;1784350;80;21092;-68
2022/03/15 00:50:29;;;;;;;15.72;8.43;;;;;;;;;;1784578;80;21033;-68
2022/03/15 00:52:56;;;;;;;14.68;8.63;;;;;;;;;;1784542;80;21032;-68
2022/03/15 00:55:23;;;;;;;16.85;7.42;;;;;;;;;;1784594;80;21056;-68
2022/03/15 00:57:49;;;;;;;12.78;7.70;;;;;;;;;;1784622;80;21068;-69
2022/03/15 01:00:17;;;;;;;12.00;6.65;;;;;;;;;;1784374;80;20969;-69
2022/03/15 01:03:20;;;;;;;17.02;8.08;;;;;;;;;;1751027;79;73257;-73
2022/03/15 01:05:47;;;;;;;15.78;7.87;;;;;;;;;;1768244;80;21085;-73
2022/03/15 01:08:14;;;;;;;13.78;7.12;;;;;;;;;;1792022;80;21038;-73
2022/03/15 01:10:41;;;;;;;15.08;6.83;;;;;;;;;;1791438;80;21041;-73
2022/03/15 01:13:08;;;;;;;14.35;7.85;;;;;;;;;;1791896;80;21481;-74
2022/03/15 01:15:44;;;;;;;11.90;7.17;;;;;;;;;;1791535;80;21056;-74
2022/03/15 01:18:12;;;;;;;13.48;7.37;;;;;;;;;;1791771;80;21006;-72
2022/03/15 01:20:41;;;;;;;14.15;7.92;;;;;;;;;;1791388;80;21575;-73
2022/03/15 01:23:07;;;;;;;13.60;7.95;;;;;;;;;;1791672;80;21505;-74
2022/03/15 01:25:33;;;;;;;17.10;8.18;;;;;;;;;;1791758;80;21005;-73
2022/03/15 01:28:00;;;;;;;15.75;8.33;;;;;;;;;;1791759;80;21053;-73
2022/03/15 01:30:30;;;;;;;17.62;9.33;;;;;;;;;;1791480;80;21501;-74
2022/03/15 01:32:56;;;;;;;19.27;8.98;;;;;;;;;;1791698;80;21484;-74
2022/03/15 01:35:23;;;;;;;12.65;7.67;;;;;;;;;;1791369;80;21548;-74
2022/03/15 01:37:52;;;;;;;16.35;9.33;;;;;;;;;;1791604;80;21089;-73
2022/03/15 01:40:20;;;;;;;19.32;9.75;;;;;;;;;;1791637;80;21592;-74
2022/03/15 01:42:47;;;;;;;13.98;7.87;;;;;;;;;;1791680;80;21006;-74
2022/03/15 01:47:16;;;;;;;14.80;8.25;;;;;;;;;;1819928;79;23061;-70
2022/03/15 01:49:43;;;;;;;16.35;8.30;;;;;;;;;;1792899;80;21091;-70
2022/03/15 01:52:13;;;;;;;17.87;8.43;;;;;;;;;;1792992;80;21059;-70
2022/03/15 01:54:41;;;;;;;13.58;7.35;;;;;;;;;;1793205;80;21032;-70
2022/03/15 01:57:08;;;;;;;12.78;6.97;;;;;;;;;;1792838;80;21111;-70
2022/03/15 01:59:36;;;;;;;10.30;6.08;;;;;;;;;;1792969;80;21012;-70
2022/03/15 02:02:03;;;;;;;16.02;7.78;;;;;;;;;;1793231;80;21095;-69
2022/03/15 02:04:32;;;;;;;11.70;6.78;;;;;;;;;;1792838;80;21001;-68
2022/03/15 02:07:03;;;;;;;13.55;6.62;;;;;;;;;;1793194;80;21036;-69
2022/03/15 02:09:30;;;;;;;11.30;7.05;;;;;;;;;;1792789;80;21048;-69
2022/03/15 02:11:58;;;;;;;11.15;6.95;;;;;;;;;;1793309;80;21543;-70
2022/03/15 02:14:25;;;;;;;18.23;7.60;;;;;;;;;;1792886;80;21033;-70
2022/03/15 02:16:52;;;;;;;13.83;7.10;;;;;;;;;;1793362;80;21036;-69
2022/03/15 02:19:20;;;;;;;13.18;6.50;;;;;;;;;;1792901;80;21059;-69
2022/03/15 02:21:48;;;;;;;10.72;5.95;;;;;;;;;;1793100;80;21056;-69
2022/03/15 02:24:15;;;;;;;13.00;6.55;;;;;;;;;;1792832;80;21132;-69
2022/03/15 02:26:42;;;;;;;11.83;6.70;;;;;;;;;;1793185;80;21076;-70
2022/03/15 02:29:09;;;;;;;11.48;6.20;;;;;;;;;;1792951;80;21059;-69
2022/03/15 02:31:38;;;;;;;9.28;6.08;;;;;;;;;;1793181;80;21095;-70
2022/03/15 02:34:04;;;;;;;13.38;6.72;;;;;;;;;;1792829;80;21074;-70
2022/03/15 02:36:31;;;;;;;11.08;5.95;;;;;;;;;;1793207;80;21060;-70
2022/03/15 02:38:59;;;;;;;10.90;5.97;;;;;;;;;;1792897;80;20996;-70
2022/03/15 02:41:27;;;;;;;10.93;6.00;;;;;;;;;;1792811;80;21087;-69
2022/03/15 02:43:58;;;;;;;12.65;6.15;;;;;;;;;;1792946;80;21032;-69
2022/03/15 02:46:29;;;;;;;10.95;6.35;;;;;;;;;;1790185;80;21147;-70
2022/03/15 02:48:57;;;;;;;11.38;6.35;;;;;;;;;;1787984;80;21056;-70
2022/03/15 02:51:23;;;;;;;13.65;6.70;;;;;;;;;;1787902;80;21068;-70
2022/03/15 02:53:52;;;;;;;15.40;7.35;;;;;;;;;;1788130;80;21635;-70
2022/03/15 02:56:19;;;;;;;13.78;7.80;;;;;;;;;;1787952;80;21064;-69
2022/03/15 02:58:46;;;;;;;14.03;6.70;;;;;;;;;;1787612;79;21052;-69
2022/03/15 03:01:12;;;;;;;12.37;7.22;;;;;;;;;;1787462;80;21032;-69
2022/03/15 03:03:39;;;;;;;9.75;6.15;;;;;;;;;;1787577;80;21047;-69
2022/03/15 03:06:07;;;;;;;11.95;6.33;;;;;;;;;;1787333;80;21081;-69
2022/03/15 03:08:35;;;;;;;11.48;6.17;;;;;;;;;;1787276;80;21036;-70
2022/03/15 03:11:02;;;;;;;13.13;6.90;;;;;;;;;;1787471;80;21646;-70
2022/03/15 03:13:30;;;;;;;13.58;6.85;;;;;;;;;;1787433;80;21550;-70
2022/03/15 03:15:59;;;;;;;12.55;6.12;;;;;;;;;;1787392;80;21056;-69
2022/03/15 03:18:31;;;;;;;12.25;6.05;;;;;;;;;;1787221;79;21096;-69
2022/03/15 03:20:56;;;;;;;12.75;7.00;;;;;;;;;;1787382;80;21554;-69
2022/03/15 03:23:22;;;;;;;14.43;6.80;;;;;;;;;;1787576;80;21001;-70
2022/03/15 03:25:49;;;;;;;13.55;6.75;;;;;;;;;;1787660;80;21111;-68
2022/03/15 03:28:17;;;;;;;12.40;6.12;;;;;;;;;;1759106;80;21067;-69
2022/03/15 03:30:47;;;;;;;12.30;6.33;;;;;;;;;;1787650;80;21540;-69
2022/03/15 03:33:14;;;;;;;11.50;6.62;;;;;;;;;;1787294;80;21088;-69
2022/03/15 03:35:40;;;;;;;10.25;6.12;;;;;;;;;;1787503;80;20997;-69
2022/03/15 03:38:08;;;;;;;9.95;6.03;;;;;;;;;;1787800;80;21048;-71
2022/03/15 03:40:35;;;;;;;9.15;6.00;;;;;;;;;;1787358;80;21065;-71
2022/03/15 03:43:01;;;;;;;13.40;6.42;;;;;;;;;;1787436;80;21031;-72
2022/03/15 03:45:29;;;;;;;17.48;7.30;;;;;;;;;;1786835;80;21089;-71
2022/03/15 03:47:56;;;;;;;11.00;5.37;;;;;;;;;;1778702;80;21025;-72
2022/03/15 03:50:22;;;;;;;12.55;6.78;;;;;;;;;;1778757;81;21061;-71
2022/03/15 03:52:49;;;;;;;13.35;7.03;;;;;;;;;;1778948;81;21033;-72
2022/03/15 03:55:16;;;;;;;12.47;5.90;;;;;;;;;;1778762;81;21056;-72
2022/03/15 03:57:43;;;;;;;12.82;6.17;;;;;;;;;;1779103;80;21018;-72
2022/03/15 04:00:11;;;;;;;13.68;6.62;;;;;;;;;;1778758;81;21551;-72
2022/03/15 04:02:42;;;;;;;13.22;7.47;;;;;;;;;;1778789;81;21021;-73
2022/03/15 04:05:09;;;;;;;12.80;6.90;;;;;;;;;;1778636;81;21048;-72
2022/03/15 04:07:41;;;;;;;13.88;6.85;;;;;;;;;;1778829;80;21052;-72
2022/03/15 04:10:08;;;;;;;13.32;7.12;;;;;;;;;;1778403;80;21509;-70
2022/03/15 04:12:39;;;;;;;14.35;7.65;;;;;;;;;;1778989;81;21539;-72
2022/03/15 04:15:07;;;;;;;16.82;8.13;;;;;;;;;;1778567;81;21053;-72
2022/03/15 04:17:34;;;;;;;14.90;6.28;;;;;;;;;;1778974;81;20965;-73
2022/03/15 04:20:01;;;;;;;10.90;6.25;;;;;;;;;;1778709;81;21104;-70
2022/03/15 04:22:28;;;;;;;8.13;5.47;;;;;;;;;;1778904;81;21115;-70
2022/03/15 04:24:55;;;;;;;14.50;7.37;;;;;;;;;;1778608;80;21041;-71
2022/03/15 04:27:22;;;;;;;12.33;6.47;;;;;;;;;;1779035;81;21100;-71
2022/03/15 04:29:49;;;;;;;14.15;6.37;;;;;;;;;;1778617;80;21029;-71
2022/03/15 04:32:18;;;;;;;14.13;7.17;;;;;;;;;;1778785;81;21048;-72
2022/03/15 04:34:44;;;;;;;10.93;5.40;;;;;;;;;;1778683;81;21556;-66
2022/03/15 04:37:11;;;;;;;11.30;6.10;;;;;;;;;;1778853;81;21033;-67
2022/03/15 04:39:38;;;;;;;12.85;6.17;;;;;;;;;;1778967;80;21064;-67
2022/03/15 04:42:05;;;;;;;10.48;5.25;;;;;;;;;;1778837;81;21049;-67
2022/03/15 04:44:32;;;;;;;12.50;5.62;;;;;;;;;;1778887;81;20958;-66
2022/03/15 04:46:59;;;;;;;10.35;6.67;;;;;;;;;;1778594;81;21112;-67
2022/03/15 04:49:26;;;;;;;9.35;5.50;;;;;;;;;;1778888;81;21016;-66
2022/03/15 04:51:53;;;;;;;10.75;6.45;;;;;;;;;;1778736;81;21096;-66
2022/03/15 04:54:19;;;;;;;12.73;6.83;;;;;;;;;;1778795;80;20990;-66
2022/03/15 04:56:46;;;;;;;10.72;5.95;;;;;;;;;;1778918;81;21532;-66
2022/03/15 04:59:12;;;;;;;10.00;6.28;;;;;;;;;;1778683;80;21060;-67
2022/03/15 05:01:39;;;;;;;11.15;6.08;;;;;;;;;;1778976;81;21021;-67
2022/03/15 05:04:08;;;;;;;15.32;6.40;;;;;;;;;;1778815;80;21068;-67
2022/03/15 05:06:38;;;;;;;12.50;6.90;;;;;;;;;;1779026;81;21505;-67
2022/03/15 05:09:05;;;;;;;11.97;6.42;;;;;;;;;;1778832;81;21056;-67
2022/03/15 05:11:34;;;;;;;10.58;6.33;;;;;;;;;;1778885;80;21077;-67
2022/03/15 05:14:02;;;;;;;9.08;4.97;;;;;;;;;;1779017;81;21001;-67
2022/03/15 05:16:29;;;;;;;14.80;7.33;;;;;;;;;;1778901;81;21060;-67
2022/03/15 05:18:57;;;;;;;12.65;5.78;;;;;;;;;;1778558;81;21026;-67
2022/03/15 05:21:27;;;;;;;13.50;7.40;;;;;;;;;;1778878;80;21056;-67
2022/03/15 05:23:54;;;;;;;13.50;7.28;;;;;;;;;;1778657;80;21072;-67
2022/03/15 05:26:22;;;;;;;12.07;6.12;;;;;;;;;;1778943;80;21052;-67
2022/03/15 05:28:50;;;;;;;15.70;7.75;;;;;;;;;;1778617;80;21463;-66
2022/03/15 05:31:19;;;;;;;12.55;7.30;;;;;;;;;;1778880;81;21061;-67
2022/03/15 05:33:48;;;;;;;14.10;8.70;;;;;;;;;;1778843;81;21009;-67
2022/03/15 05:36:15;;;;;;;15.65;7.60;;;;;;;;;;1778608;81;21048;-68
2022/03/15 05:38:42;;;;;;;13.88;8.23;;;;;;;;;;1778848;81;21056;-66
2022/03/15 05:41:09;;;;;;;17.12;9.30;;;;;;;;;;1778656;81;21087;-67
2022/03/15 05:43:36;;;;;;;17.60;10.50;;;;;;;;;;1778706;81;21025;-67
2022/03/15 05:46:04;;;;;;;17.35;10.93;;;;;;;;;;1778465;81;21108;-68
2022/03/15 05:48:33;;;;;;;16.32;10.80;;;;;;;;;;1778681;81;21014;-67
2022/03/15 05:51:00;;;;;;;15.38;10.13;;;;;;;;;;1778555;81;21057;-68
2022/03/15 05:53:27;;;;;;;15.32;9.83;;;;;;;;;;1778850;81;21045;-68
2022/03/15 05:55:54;;;;;;;16.20;9.13;;;;;;;;;;1778431;80;21075;-68
2022/03/15 05:58:21;;;;;;;15.70;10.40;;;;;;;;;;1779072;81;21052;-68
2022/03/15 06:00:55;;;;;;;19.27;10.20;;;;;;;;;;1778333;81;21048;-68
2022/03/15 06:03:18;;;;;;;16.30;10.50;;;;;;;;;;1778103;80;21069;-67
2022/03/15 06:05:45;;;;;;;18.02;8.93;;;;;;;;;;1778607;81;21017;-67
2022/03/15 06:08:13;;;;;;;17.95;10.85;;;;;;;;;;1778543;81;21037;-67
2022/03/15 06:10:42;;;;;;;19.30;11.88;;;;;;;;;;1778752;81;21092;-67
2022/03/15 06:13:09;;;;;;;16.60;10.88;;;;;;;;;;1778703;81;21057;-67
2022/03/15 06:15:35;;;;;;;19.00;11.48;;;;;;;;;;1778782;81;21112;-67
2022/03/15 06:18:03;;;;;;;17.45;12.05;;;;;;;;;;1778695;81;21096;-67
2022/03/15 06:20:29;;;;;;;15.80;9.88;;;;;;;;;;1778880;81;21029;-68
2022/03/15 06:23:01;;;;;;;18.80;12.00;;;;;;;;;;1778586;81;21033;-68
2022/03/15 06:25:30;;;;;;;20.88;13.78;;;;;;;;;;1778865;81;21532;-67
2022/03/15 06:27:57;;;;;;;21.25;12.80;;;;;;;;;;1778588;81;21014;-67
2022/03/15 06:30:24;;;;;;;22.20;11.43;;;;;;;;;;1778977;80;21092;-68
2022/03/15 06:32:51;;;;;;;21.17;12.93;;;;;;;;;;1778665;81;21575;-67
2022/03/15 06:35:19;;;;;;;21.25;11.63;;;;;;;;;;1779204;81;21037;-68
2022/03/15 06:37:46;;;;;;;19.62;11.90;;;;;;;;;;1778781;81;21053;-68
2022/03/15 06:40:13;;;;;;;22.15;14.35;;;;;;;;;;1778719;81;21044;-68
2022/03/15 06:42:40;;;;;;;21.95;13.50;;;;;;;;;;1778995;81;22095;-66
2022/03/15 06:45:07;;;;;;;19.55;11.00;;;;;;;;;;1778949;81;21586;-67
2022/03/15 06:47:35;;;;;;;22.10;13.62;;;;;;;;;;1782047;80;21488;-68
2022/03/15 06:50:04;;;;;;;21.48;12.93;;;;;;;;;;1784555;80;21060;-67
2022/03/15 06:52:30;;;;;;;20.85;12.10;;;;;;;;;;1784791;80;21006;-68
2022/03/15 06:54:57;;;;;;;23.00;13.88;;;;;;;;;;1784506;80;21032;-67
2022/03/15 06:57:23;;;;;;;22.55;13.25;;;;;;;;;;1784777;80;21556;-67
2022/03/15 06:59:50;;;;;;;24.98;14.38;;;;;;;;;;1784340;80;21578;-66
2022/03/15 07:02:17;;;;;;;21.33;12.70;;;;;;;;;;1784679;80;21084;-67
2022/03/15 07:04:43;;;;;;;22.98;14.28;;;;;;;;;;1784391;80;21001;-68
2022/03/15 07:07:11;;;;;;;18.90;10.88;;;;;;;;;;1784816;80;21072;-67
2022/03/15 07:09:37;;;;;;;24.60;15.30;;;;;;;;;;1784465;80;21064;-67
2022/03/15 07:12:04;;;;;;;21.57;13.30;;;;;;;;;;1784370;80;21077;-66
2022/03/15 07:14:31;;;;;;;22.35;14.63;;;;;;;;;;1784751;80;22048;-67
2022/03/15 07:16:59;;;;;;;20.25;12.10;;;;;;;;;;1784431;80;21393;-67
2022/03/15 07:19:27;;;;;;;22.30;10.78;;;;;;;;;;1784705;80;21021;-67
2022/03/15 07:21:54;;;;;;;21.35;11.53;;;;;;;;;;1784487;80;21033;-67
2022/03/15 07:24:21;;;;;;;23.07;14.73;;;;;;;;;;1784707;80;21544;-68
2022/03/15 07:26:47;;;;;;;16.40;9.83;;;;;;;;;;1784497;80;21028;-67
2022/03/15 07:29:14;;;;;;;22.13;14.43;;;;;;;;;;1784703;80;21067;-68
2022/03/15 07:31:41;;;;;;;22.82;13.60;;;;;;;;;;1784510;80;21025;-68
2022/03/15 07:34:08;;;;;;;21.85;13.78;;;;;;;;;;1784843;80;21005;-69
2022/03/15 07:36:35;;;;;;;20.62;12.55;;;;;;;;;;1784306;80;21025;-69
2022/03/15 07:39:04;;;;;;;19.05;10.93;;;;;;;;;;1784711;80;21009;-68
2022/03/15 07:41:34;;;;;;;19.40;11.35;;;;;;;;;;1784440;80;21060;-68
2022/03/15 07:43:59;;;;;;;16.30;10.75;;;;;;;;;;1784379;80;21547;-69
2022/03/15 07:46:26;;;;;;;17.55;10.15;;;;;;;;;;1784519;80;21092;-67
2022/03/15 07:48:53;;;;;;;23.95;12.80;;;;;;;;;;1787139;80;21040;-67
2022/03/15 07:51:19;;;;;;;23.12;13.68;;;;;;;;;;1787265;80;21036;-67
2022/03/15 07:53:46;;;;;;;18.95;10.88;;;;;;;;;;1787512;80;21043;-68
2022/03/15 07:56:13;;;;;;;21.73;11.70;;;;;;;;;;1787165;80;21048;-68
2022/03/15 07:58:40;;;;;;;16.62;9.33;;;;;;;;;;1787424;80;21036;-67
2022/03/15 08:01:06;;;;;;;19.35;10.78;;;;;;;;;;1787641;80;21559;-68
2022/03/15 08:03:53;;;;;;;14.80;8.05;;;;;;;;;;1787385;80;21048;-68
2022/03/15 08:06:21;;;;;;;11.97;7.25;;;;;;;;;;1787515;79;21523;-68
2022/03/15 08:08:48;;;;;;;16.10;10.72;;;;;;;;;;1787240;80;21029;-68
2022/03/15 08:11:15;;;;;;;13.30;8.33;;;;;;;;;;1787523;80;21009;-68
2022/03/15 08:13:42;;;;;;;21.17;8.30;;;;;;;;;;1787463;80;21587;-66
2022/03/15 08:16:09;;;;;;;10.95;6.33;;;;;;;;;;1787195;80;21056;-68
2022/03/15 08:18:37;;;;;;;12.98;7.50;;;;;;;;;;1787457;80;21044;-68
2022/03/15 08:21:04;;;;;;;14.78;8.30;;;;;;;;;;1787122;80;21024;-67
2022/03/15 08:23:31;;;;;;;11.20;6.70;;;;;;;;;;1787465;80;21020;-67
2022/03/15 08:25:58;;;;;;;12.28;6.70;;;;;;;;;;1787066;80;21063;-68
2022/03/15 08:28:26;;;;;;;10.68;7.55;;;;;;;;;;1787238;80;20993;-67
2022/03/15 08:30:52;;;;;;;12.35;7.87;;;;;;;;;;1787149;80;21067;-69
2022/03/15 08:33:19;;;;;;;13.05;6.83;;;;;;;;;;1787523;80;21025;-67
2022/03/15 08:35:46;;;;;;;11.90;6.40;;;;;;;;;;1787110;80;21020;-67
2022/03/15 08:38:13;;;;;;;13.68;7.78;;;;;;;;;;1787305;80;21535;-68
2022/03/15 08:40:40;;;;;;;11.12;6.75;;;;;;;;;;1787250;80;21123;-68
2022/03/15 08:43:09;;;;;;;10.30;6.97;;;;;;;;;;1787355;79;21095;-69
2022/03/15 08:45:35;;;;;;;10.93;7.30;;;;;;;;;;1787077;80;21087;-68
2022/03/15 08:48:03;;;;;;;12.53;7.12;;;;;;;;;;1782892;80;21033;-68
2022/03/15 08:50:30;;;;;;;12.37;6.72;;;;;;;;;;1778609;80;21130;-68
2022/03/15 08:52:57;;;;;;;11.18;6.55;;;;;;;;;;1778906;80;21054;-68
2022/03/15 08:55:24;;;;;;;11.97;7.70;;;;;;;;;;1778608;81;21061;-68
2022/03/15 08:57:51;;;;;;;12.58;8.38;;;;;;;;;;1778505;81;21528;-69
2022/03/15 09:00:18;;;;;;;11.70;6.90;;;;;;;;;;1778869;80;21370;-67
2022/03/15 09:02:45;;;;;;;11.68;7.37;;;;;;;;;;1778749;81;21030;-68
2022/03/15 09:05:13;;;;;;;12.28;7.00;;;;;;;;;;1778758;81;21111;-68
2022/03/15 09:07:40;;;;;;;11.90;7.53;;;;;;;;;;1778551;80;21040;-68
2022/03/15 09:10:07;;;;;;;13.55;7.58;;;;;;;;;;1778825;81;21033;-68
2022/03/15 09:12:35;;;;;;;12.20;7.85;;;;;;;;;;1778637;81;21489;-69
2022/03/15 09:15:02;;;;;;;10.60;7.05;;;;;;;;;;1778900;80;21064;-68
2022/03/15 09:17:29;;;;;;;14.85;9.13;;;;;;;;;;1778660;80;21049;-69
2022/03/15 09:19:56;;;;;;;15.50;7.87;;;;;;;;;;1778862;81;21072;-69
2022/03/15 09:22:23;;;;;;;15.83;9.70;;;;;;;;;;1778922;80;21500;-72
2022/03/15 09:24:50;;;;;;;14.28;7.97;;;;;;;;;;1778921;80;20993;-72
2022/03/15 09:27:16;;;;;;;17.17;9.03;;;;;;;;;;1778637;80;21080;-72
2022/03/15 09:29:43;;;;;;;14.00;7.53;;;;;;;;;;1779004;80;21022;-72
2022/03/15 09:32:10;;;;;;;15.68;8.55;;;;;;;;;;1778637;81;21033;-72
2022/03/15 09:34:37;;;;;;;18.65;9.83;;;;;;;;;;1778685;80;21009;-72
2022/03/15 09:37:04;;;;;;;16.12;9.60;;;;;;;;;;1778821;80;21008;-72
2022/03/15 09:39:31;;;;;;;18.32;9.55;;;;;;;;;;1778701;81;21006;-72
2022/03/15 09:41:59;;;;;;;14.47;8.18;;;;;;;;;;1778652;81;21029;-71
2022/03/15 09:44:27;;;;;;;17.60;8.93;;;;;;;;;;1778714;81;21002;-73
2022/03/15 09:46:55;;;;;;;16.95;11.40;;;;;;;;;;1778571;81;21069;-74
2022/03/15 09:49:23;;;;;;;18.65;10.75;;;;;;;;;;1778558;80;21102;-74
2022/03/15 09:51:49;;;;;;;19.27;11.22;;;;;;;;;;1778728;81;21009;-74
2022/03/15 09:54:17;;;;;;;15.53;9.70;;;;;;;;;;1778746;81;21568;-73
2022/03/15 09:56:44;;;;;;;15.90;9.90;;;;;;;;;;1778904;81;21061;-73
2022/03/15 09:59:16;;;;;;;13.53;8.15;;;;;;;;;;1778656;81;21045;-73
2022/03/15 10:01:44;;;;;;;12.90;7.97;;;;;;;;;;1777767;80;21021;-72
2022/03/15 10:04:13;;;;;;;11.40;6.40;;;;;;;;;;1778859;81;21540;-72
2022/03/15 10:06:40;;;;;;;10.40;6.12;;;;;;;;;;1778884;80;21056;-71
2022/03/15 10:09:08;;;;;;;12.85;7.40;;;;;;;;;;1777717;81;21045;-72
2022/03/15 10:11:36;;;;;;;12.50;7.03;;;;;;;;;;1779103;81;21540;-72
2022/03/15 10:14:04;;;;;;;11.00;7.33;;;;;;;;;;1778768;81;21052;-72
2022/03/15 10:16:32;;;;;;;12.07;7.55;;;;;;;;;;1778907;80;21489;-72
2022/03/15 10:18:59;;;;;;;13.45;8.08;;;;;;;;;;1778949;81;21053;-72
2022/03/15 10:21:25;;;;;;;13.50;8.70;;;;;;;;;;1778935;81;21024;-73
2022/03/15 10:23:54;;;;;;;11.53;7.47;;;;;;;;;;1756972;81;21052;-72
2022/03/15 10:26:23;;;;;;;9.95;7.30;;;;;;;;;;1779238;81;21007;-73
2022/03/15 10:28:49;;;;;;;14.28;9.90;;;;;;;;;;1778887;80;21550;-72
2022/03/15 10:31:16;;;;;;;12.85;8.88;;;;;;;;;;1778545;81;21119;-72
2022/03/15 10:33:43;;;;;;;13.53;8.20;;;;;;;;;;1778825;80;21001;-72
2022/03/15 10:36:17;;;;;;;10.82;8.35;;;;;;;;;;1756635;81;21033;-72
2022/03/15 10:38:47;;;;;;;12.00;7.97;;;;;;;;;;1778962;81;21005;-73
2022/03/15 10:41:15;;;;;;;13.80;9.23;;;;;;;;;;1778740;81;22186;-72
2022/03/15 10:43:41;;;;;;;12.15;8.33;;;;;;;;;;1779033;81;21001;-72
2022/03/15 10:46:12;;;;;;;11.08;8.43;;;;;;;;;;1778687;80;21057;-72
2022/03/15 10:48:40;;;;;;;13.00;7.50;;;;;;;;;;1779012;80;21052;-72
2022/03/15 10:51:08;;;;;;;12.35;8.60;;;;;;;;;;1779033;80;21564;-72
2022/03/15 10:53:37;;;;;;;10.50;8.10;;;;;;;;;;1778965;81;21033;-72
2022/03/15 10:56:11;;;;;;;14.93;8.83;;;;;;;;;;1777901;81;21111;-73
2022/03/15 10:58:48;;;;;;;12.37;7.55;;;;;;;;;;1779163;80;21469;-72
2022/03/15 11:01:20;;;;;;;11.88;7.72;;;;;;;;;;1778014;80;21099;-72
2022/03/15 11:04:01;;;;;;;12.28;8.58;;;;;;;;;;1777921;80;21045;-71
2022/03/15 11:06:37;;;;;;;10.35;7.20;;;;;;;;;;1779047;81;20994;-73
2022/03/15 11:09:04;;;;;;;9.78;5.75;;;;;;;;;;1778858;81;21072;-73
2022/03/15 11:11:33;;;;;;;9.60;6.00;;;;;;;;;;1778169;80;21076;-72
2022/03/15 11:14:05;;;;;;;8.83;5.90;;;;;;;;;;1779036;80;21052;-73
2022/03/15 11:16:33;;;;;;;8.25;5.03;;;;;;;;;;1778821;81;21705;-72
2022/03/15 11:19:00;;;;;;;8.23;5.28;;;;;;;;;;1778897;81;21014;-72
2022/03/15 11:21:27;;;;;;;8.88;5.67;;;;;;;;;;1778534;81;21061;-72
2022/03/15 11:23:54;;;;;;;8.38;4.20;;;;;;;;;;1778632;80;21606;-72
2022/03/15 11:26:21;;;;;;;8.98;5.03;;;;;;;;;;1778867;81;21029;-72
2022/03/15 11:28:48;;;;;;;6.97;4.17;;;;;;;;;;1778747;81;21140;-71
2022/03/15 11:31:15;;;;;;;7.85;4.75;;;;;;;;;;1778786;81;21033;-73
2022/03/15 11:33:44;;;;;;;8.10;3.87;;;;;;;;;;1778936;81;21060;-72
2022/03/15 11:36:12;;;;;;;8.10;4.95;;;;;;;;;;1778869;81;21086;-73
2022/03/15 11:38:42;;;;;;;7.75;4.17;;;;;;;;;;1778579;81;21084;-73
2022/03/15 11:41:10;;;;;;;6.80;4.45;;;;;;;;;;1778811;81;21088;-71
2022/03/15 11:44:00;;;;;;;6.87;3.98;;;;;;;;;;1777507;80;20994;-72
2022/03/15 11:46:27;;;;;;;9.13;5.22;;;;;;;;;;1778232;81;21152;-74
2022/03/15 11:49:09;;;;;;;7.30;4.40;;;;;;;;;;1782835;80;21396;-72
2022/03/15 11:51:47;;;;;;;8.63;5.00;;;;;;;;;;1787322;80;21107;-72
2022/03/15 11:54:21;;;;;;;7.90;3.70;;;;;;;;;;1758235;80;20989;-72
2022/03/15 11:57:06;;;;;;;7.30;4.75;;;;;;;;;;1787371;80;21095;-71
2022/03/15 11:59:45;;;;;;;5.72;3.60;;;;;;;;;;1785725;80;21108;-72
2022/03/15 12:02:12;;;;;;;4.28;3.00;;;;;;;;;;1787275;80;21060;-72
2022/03/15 12:04:44;;;;;;;8.80;4.25;;;;;;;;;;1787267;80;21079;-71
2022/03/15 12:07:11;;;;;;;6.47;4.37;;;;;;;;;;1787475;80;21678;-73
2022/03/15 12:09:41;;;;;;;5.80;3.17;;;;;;;;;;1787353;80;21540;-71
2022/03/15 12:12:08;;;;;;;6.53;3.77;;;;;;;;;;1786713;80;21033;-71
2022/03/15 12:14:40;;;;;;;6.15;3.12;;;;;;;;;;1787276;80;21100;-73
2022/03/15 12:17:11;;;;;;;4.67;2.75;;;;;;;;;;1787493;80;20992;-72
2022/03/15 12:19:47;;;;;;;5.62;3.22;;;;;;;;;;1787643;80;21574;-72
2022/03/15 12:22:25;;;;;;;5.55;3.00;;;;;;;;;;1787466;80;20969;-72
2022/03/15 12:25:07;;;;;;;3.62;2.60;;;;;;;;;;1787501;80;21052;-73
2022/03/15 12:27:40;;;;;;;4.72;3.00;;;;;;;;;;1787445;80;21036;-71
2022/03/15 12:30:08;;;;;;;5.03;3.02;;;;;;;;;;1787133;80;21056;-72
2022/03/15 12:32:35;;;;;;;5.17;3.30;;;;;;;;;;1787369;80;21009;-73
2022/03/15 12:35:03;;;;;;;5.83;3.95;;;;;;;;;;1787307;80;21025;-73
2022/03/15 12:37:37;;;;;;;5.92;3.20;;;;;;;;;;1787461;80;21011;-73
2022/03/15 12:40:09;;;;;;;5.10;3.10;;;;;;;;;;1787555;80;21060;-71
2022/03/15 12:42:37;;;;;;;4.60;2.80;;;;;;;;;;1787468;80;22183;-73
2022/03/15 12:45:08;;;;;;;6.08;3.22;;;;;;;;;;1787548;80;21512;-72
2022/03/15 12:47:35;;;;;;;5.25;3.62;;;;;;;;;;1787203;80;21106;-73
2022/03/15 12:50:06;;;;;;;5.10;3.02;;;;;;;;;;1759392;80;21610;-71
2022/03/15 12:52:40;;;;;;;6.33;3.90;;;;;;;;;;1789333;80;21071;-72
2022/03/15 12:55:08;;;;;;;8.83;3.47;;;;;;;;;;1789259;80;21083;-72
2022/03/15 12:57:35;;;;;;;6.70;3.80;;;;;;;;;;1787883;80;20977;-71
2022/03/15 13:00:04;;;;;;;7.75;4.10;;;;;;;;;;1789313;80;21072;-72
2022/03/15 13:02:31;;;;;;;6.28;4.08;;;;;;;;;;1789281;80;21000;-72
2022/03/15 13:04:59;;;;;;;6.47;3.40;;;;;;;;;;1789331;80;21588;-72
2022/03/15 13:07:28;;;;;;;7.97;4.37;;;;;;;;;;1758412;80;21001;-72
2022/03/15 13:09:58;;;;;;;5.80;3.47;;;;;;;;;;1789351;80;21599;-72
2022/03/15 13:12:26;;;;;;;6.47;4.33;;;;;;;;;;1789000;80;22144;-71
2022/03/15 13:14:55;;;;;;;6.80;4.30;;;;;;;;;;1789194;80;21001;-73
2022/03/15 13:17:22;;;;;;;6.97;4.70;;;;;;;;;;1789126;80;21037;-72
2022/03/15 13:19:48;;;;;;;5.05;3.70;;;;;;;;;;1789494;80;21052;-72
2022/03/15 13:22:17;;;;;;;7.17;4.28;;;;;;;;;;1789203;80;21036;-72
2022/03/15 13:24:45;;;;;;;6.03;3.67;;;;;;;;;;1788201;80;21575;-72
2022/03/15 13:27:11;;;;;;;7.17;4.03;;;;;;;;;;1789151;80;21076;-72
2022/03/15 13:29:39;;;;;;;6.97;4.28;;;;;;;;;;1789889;80;20989;-73
2022/03/15 13:32:06;;;;;;;5.80;3.98;;;;;;;;;;1758971;80;21017;-72
2022/03/15 13:34:33;;;;;;;5.20;3.25;;;;;;;;;;1789442;80;21512;-73
2022/03/15 13:37:04;;;;;;;8.05;3.77;;;;;;;;;;1789263;80;21071;-73
2022/03/15 13:39:32;;;;;;;5.17;2.90;;;;;;;;;;1789285;80;21111;-72
2022/03/15 13:42:00;;;;;;;5.00;3.10;;;;;;;;;;1789068;80;21592;-71
2022/03/15 13:44:37;;;;;;;7.75;3.75;;;;;;;;;;1789435;79;21021;-72
2022/03/15 13:47:06;;;;;;;4.17;2.62;;;;;;;;;;1789435;80;21082;-72
2022/03/15 13:49:37;;;;;;;5.95;3.58;;;;;;;;;;1783471;80;21065;-72
2022/03/15 13:52:07;;;;;;;4.80;3.22;;;;;;;;;;1779038;81;21040;-71
2022/03/15 13:54:48;;;;;;;6.33;3.30;;;;;;;;;;1779470;80;21044;-71
2022/03/15 13:57:25;;;;;;;4.65;2.90;;;;;;;;;;1779265;81;21072;-73
2022/03/15 14:00:03;;;;;;;6.75;3.70;;;;;;;;;;1779024;80;21511;-73
2022/03/15 14:04:19;;;;;;;4.42;3.37;;;;;;;;;;1801075;79;23499;-72
2022/03/15 14:06:47;;;;;;;5.25;3.80;;;;;;;;;;1761751;81;21048;-71
2022/03/15 14:09:27;;;;;;;5.58;2.92;;;;;;;;;;1761846;81;21583;-70
2022/03/15 14:12:08;;;;;;;4.78;3.05;;;;;;;;;;1761818;81;21044;-72
2022/03/15 14:14:31;;;;;;;3.62;2.30;;;;;;;;;;1753085;81;21064;-73
2022/03/15 14:16:57;;;;;;;5.35;3.20;;;;;;;;;;1742716;81;20953;-72
2022/03/15 14:19:26;;;;;;;4.80;2.92;;;;;;;;;;1761529;81;21028;-72
2022/03/15 14:21:57;;;;;;;4.35;3.20;;;;;;;;;;1761705;81;21017;-72
2022/03/15 14:24:24;;;;;;;5.22;3.50;;;;;;;;;;1760960;81;21060;-72
2022/03/15 14:26:53;;;;;;;4.83;3.40;;;;;;;;;;1761801;81;21111;-72
2022/03/15 14:29:21;;;;;;;4.45;3.20;;;;;;;;;;1761967;81;21029;-71
2022/03/15 14:31:58;;;;;;;7.87;3.05;;;;;;;;;;1761903;81;21575;-72
2022/03/15 14:34:26;;;;;;;4.22;3.00;;;;;;;;;;1744233;81;21052;-72
2022/03/15 14:37:12;;;;;;;4.35;2.90;;;;;;;;;;1761957;81;21029;-71
2022/03/15 14:39:40;;;;;;;5.37;3.37;;;;;;;;;;1761816;81;21064;-72
2022/03/15 14:42:07;;;;;;;5.92;2.65;;;;;;;;;;1761958;81;21004;-71